sensor_id;sensor_type;location;lat;lon;timestamp;pressure;altitude;pressure_sealevel;temperature;humidity
46223;BME280;31943;51.410;7.564;2022-12-10T07:26:05;99597.88;;;2.71;60.61
46223;BME280;31943;51.410;7.564;2022-12-10T07:28:58;99604.00;;;2.75;60.54
46223;BME280;31943;51.410;7.564;2022-12-10T07:31:37;99612.56;;;2.74;60.57
46223;BME280;31943;51.410;7.564;2022-12-10T07:34:14;99613.56;;;2.79;60.67
46223;BME280;31943;51.410;7.564;2022-12-10T07:36:42;99615.47;;;2.85;60.33
46223;BME280;31943;51.410;7.564;2022-12-10T07:39:12;99607.94;;;2.91;60.18
46223;BME280;31943;51.410;7.564;2022-12-10T07:42:02;99608.97;;;2.97;59.77
46223;BME280;31943;51.410;7.564;2022-12-10T07:44:38;99609.75;;;2.95;59.86
46223;BME280;31943;51.410;7.564;2022-12-10T07:47:12;99611.56;;;2.97;59.51
46223;BME280;31943;51.410;7.564;2022-12-10T07:49:38;99614.13;;;2.97;59.59
46223;BME280;31943;51.410;7.564;2022-12-10T07:52:04;99614.09;;;2.96;59.78
46223;BME280;31943;51.410;7.564;2022-12-10T07:54:29;99614.09;;;2.96;59.87
46223;BME280;31943;51.410;7.564;2022-12-10T07:56:57;99614.09;;;2.96;59.54
46223;BME280;31943;51.410;7.564;2022-12-10T07:59:22;99615.84;;;2.97;59.47
46223;BME280;31943;51.410;7.564;2022-12-10T08:01:51;99620.31;;;3.03;58.99
46223;BME280;31943;51.410;7.564;2022-12-10T08:25:35;99623.06;;;3.09;58.33
46223;BME280;31943;51.410;7.564;2022-12-10T08:28:01;99629.06;;;3.08;58.59
46223;BME280;31943;51.410;7.564;2022-12-10T08:30:29;99624.78;;;3.08;58.58
46223;BME280;31943;51.410;7.564;2022-12-10T08:32:55;99636.00;;;3.10;58.84
46223;BME280;31943;51.410;7.564;2022-12-10T08:35:22;99636.94;;;3.12;58.80
46223;BME280;31943;51.410;7.564;2022-12-10T08:37:49;99636.09;;;3.13;58.86
46223;BME280;31943;51.410;7.564;2022-12-10T08:40:26;99642.16;;;3.15;58.79
46223;BME280;31943;51.410;7.564;2022-12-10T08:42:55;99646.59;;;3.20;58.90
46223;BME280;31943;51.410;7.564;2022-12-10T08:45:22;99649.19;;;3.20;58.74
46223;BME280;31943;51.410;7.564;2022-12-10T08:47:48;99650.13;;;2.94;59.73
46223;BME280;31943;51.410;7.564;2022-12-10T08:50:14;99658.94;;;2.74;60.18
46223;BME280;31943;51.410;7.564;2022-12-10T08:52:41;99658.66;;;2.65;60.67
46223;BME280;31943;51.410;7.564;2022-12-10T08:55:08;99661.72;;;2.53;60.61
46223;BME280;31943;51.410;7.564;2022-12-10T08:57:34;99666.59;;;2.45;60.98
46223;BME280;31943;51.410;7.564;2022-12-10T09:00:01;99657.97;;;2.45;61.04
46223;BME280;31943;51.410;7.564;2022-12-10T09:02:29;99663.31;;;2.49;61.13
46223;BME280;31943;51.410;7.564;2022-12-10T09:04:55;99665.88;;;2.49;61.06
46223;BME280;31943;51.410;7.564;2022-12-10T09:07:22;99666.69;;;2.48;60.73
46223;BME280;31943;51.410;7.564;2022-12-10T09:09:49;99670.09;;;2.47;60.82
46223;BME280;31943;51.410;7.564;2022-12-10T09:12:15;99679.69;;;2.51;60.74
46223;BME280;31943;51.410;7.564;2022-12-10T09:14:40;99678.94;;;2.55;61.00
46223;BME280;31943;51.410;7.564;2022-12-10T09:17:07;99679.03;;;2.58;60.83
46223;BME280;31943;51.410;7.564;2022-12-10T09:19:33;99683.50;;;2.63;60.96
46223;BME280;31943;51.410;7.564;2022-12-10T09:21:59;99685.34;;;2.67;60.98
46223;BME280;31943;51.410;7.564;2022-12-10T09:24:26;99683.69;;;2.69;61.01
46223;BME280;31943;51.410;7.564;2022-12-10T09:26:51;99683.72;;;2.70;60.82
46223;BME280;31943;51.410;7.564;2022-12-10T09:29:19;99687.22;;;2.72;60.70
46223;BME280;31943;51.410;7.564;2022-12-10T09:31:44;99694.13;;;2.73;60.71
46223;BME280;31943;51.410;7.564;2022-12-10T09:34:12;99689.91;;;2.75;60.48
46223;BME280;31943;51.410;7.564;2022-12-10T09:36:37;99686.47;;;2.75;60.49
46223;BME280;31943;51.410;7.564;2022-12-10T09:39:03;99683.88;;;2.75;60.52
46223;BME280;31943;51.410;7.564;2022-12-10T09:41:56;99672.78;;;2.77;60.39
46223;BME280;31943;51.410;7.564;2022-12-10T09:44:35;99676.16;;;2.75;60.40
46223;BME280;31943;51.410;7.564;2022-12-10T09:47:05;99678.78;;;2.76;60.56
46223;BME280;31943;51.410;7.564;2022-12-10T09:49:42;99684.06;;;2.81;60.64
46223;BME280;31943;51.410;7.564;2022-12-10T09:52:13;99682.47;;;2.85;60.65
46223;BME280;31943;51.410;7.564;2022-12-10T09:54:42;99687.69;;;2.86;60.49
46223;BME280;31943;51.410;7.564;2022-12-10T09:57:21;99687.72;;;2.88;60.27
46223;BME280;31943;51.410;7.564;2022-12-10T09:59:51;99693.75;;;2.88;60.28
46223;BME280;31943;51.410;7.564;2022-12-10T10:02:22;99690.34;;;2.89;60.46
46223;BME280;31943;51.410;7.564;2022-12-10T10:05:06;99680.94;;;2.91;60.36
46223;BME280;31943;51.410;7.564;2022-12-10T10:07:41;99681.06;;;2.94;60.27
46223;BME280;31943;51.410;7.564;2022-12-10T10:10:21;99681.97;;;2.96;60.05
46223;BME280;31943;51.410;7.564;2022-12-10T10:13:15;99691.56;;;3.01;59.98
46223;BME280;31943;51.410;7.564;2022-12-10T10:15:48;99695.00;;;3.01;60.06
46223;BME280;31943;51.410;7.564;2022-12-10T10:18:20;99690.72;;;3.02;59.91
46223;BME280;31943;51.410;7.564;2022-12-10T10:20:51;99689.91;;;3.03;59.82
46223;BME280;31943;51.410;7.564;2022-12-10T10:23:17;99688.13;;;3.02;59.72
46223;BME280;31943;51.410;7.564;2022-12-10T10:25:43;99684.75;;;3.03;59.94
46223;BME280;31943;51.410;7.564;2022-12-10T10:28:12;99678.81;;;3.05;59.80
46223;BME280;31943;51.410;7.564;2022-12-10T10:30:42;99678.00;;;3.06;59.91
46223;BME280;31943;51.410;7.564;2022-12-10T10:33:10;99675.47;;;3.08;59.89
46223;BME280;31943;51.410;7.564;2022-12-10T10:35:43;99678.75;;;3.04;59.77
46223;BME280;31943;51.410;7.564;2022-12-10T10:38:17;99679.66;;;3.06;59.71
46223;BME280;31943;51.410;7.564;2022-12-10T10:40:45;99679.78;;;3.09;59.91
46223;BME280;31943;51.410;7.564;2022-12-10T10:43:16;99675.59;;;3.12;59.96
46223;BME280;31943;51.410;7.564;2022-12-10T10:45:48;99683.38;;;3.14;59.69
46223;BME280;31943;51.410;7.564;2022-12-10T10:48:17;99684.19;;;3.13;59.78
46223;BME280;31943;51.410;7.564;2022-12-10T10:50:44;99692.00;;;3.14;59.71
46223;BME280;31943;51.410;7.564;2022-12-10T10:53:30;99693.78;;;3.17;59.76
46223;BME280;31943;51.410;7.564;2022-12-10T10:55:59;99690.22;;;3.13;59.77
46223;BME280;31943;51.410;7.564;2022-12-10T10:58:26;99697.97;;;3.13;59.86
46223;BME280;31943;51.410;7.564;2022-12-10T11:00:54;99689.28;;;3.10;59.67
46223;BME280;31943;51.410;7.564;2022-12-10T11:03:21;99689.31;;;3.11;59.36
46223;BME280;31943;51.410;7.564;2022-12-10T11:05:47;99685.81;;;3.09;58.90
46223;BME280;31943;51.410;7.564;2022-12-10T11:08:16;99685.66;;;3.05;58.33
46223;BME280;31943;51.410;7.564;2022-12-10T11:10:49;99683.88;;;3.02;58.79
46223;BME280;31943;51.410;7.564;2022-12-10T11:13:23;99683.97;;;3.05;58.78
46223;BME280;31943;51.410;7.564;2022-12-10T11:15:55;99681.50;;;3.08;59.09
46223;BME280;31943;51.410;7.564;2022-12-10T11:18:25;99685.72;;;3.06;59.13
46223;BME280;31943;51.410;7.564;2022-12-10T11:21:00;99685.72;;;3.06;59.15
46223;BME280;31943;51.410;7.564;2022-12-10T11:23:28;99681.44;;;3.07;58.82
46223;BME280;31943;51.410;7.564;2022-12-10T11:26:05;99684.75;;;3.03;58.77
46223;BME280;31943;51.410;7.564;2022-12-10T11:28:44;99676.28;;;3.07;59.15
46223;BME280;31943;51.410;7.564;2022-12-10T11:31:27;99684.06;;;3.08;59.51
46223;BME280;31943;51.410;7.564;2022-12-10T11:34:04;99691.81;;;3.08;59.18
46223;BME280;31943;51.410;7.564;2022-12-10T11:36:38;99694.38;;;3.08;59.35
46223;BME280;31943;51.410;7.564;2022-12-10T11:39:21;99688.44;;;3.11;59.56
46223;BME280;31943;51.410;7.564;2022-12-10T11:41:58;99697.97;;;3.13;59.75
46223;BME280;31943;51.410;7.564;2022-12-10T11:44:33;99697.13;;;3.14;59.75
46223;BME280;31943;51.410;7.564;2022-12-10T11:47:22;99695.59;;;3.20;59.62
46223;BME280;31943;51.410;7.564;2022-12-10T11:50:00;99699.03;;;3.20;59.81
46223;BME280;31943;51.410;7.564;2022-12-10T11:52:40;99690.44;;;3.20;59.38
46223;BME280;31943;51.410;7.564;2022-12-10T11:55:20;99689.41;;;3.14;58.62
46223;BME280;31943;51.410;7.564;2022-12-10T11:57:59;99694.56;;;3.14;58.64
46223;BME280;31943;51.410;7.564;2022-12-10T12:00:31;99696.13;;;3.09;58.81
46223;BME280;31943;51.410;7.564;2022-12-10T12:03:28;99705.66;;;3.12;59.07
46223;BME280;31943;51.410;7.564;2022-12-10T12:06:07;99708.56;;;2.95;58.95
46223;BME280;31943;51.410;7.564;2022-12-10T12:08:46;99714.78;;;2.75;59.91
46223;BME280;31943;51.410;7.564;2022-12-10T12:11:24;99707.47;;;2.62;60.30
46223;BME280;31943;51.410;7.564;2022-12-10T12:13:59;99712.31;;;2.52;60.68
46223;BME280;31943;51.410;7.564;2022-12-10T12:16:29;99699.97;;;2.42;61.06
46223;BME280;31943;51.410;7.564;2022-12-10T12:18:59;99710.25;;;2.42;61.34
46223;BME280;31943;51.410;7.564;2022-12-10T12:21:25;99708.72;;;2.47;61.28
46223;BME280;31943;51.410;7.564;2022-12-10T12:23:54;99712.31;;;2.52;61.04
46223;BME280;31943;51.410;7.564;2022-12-10T12:26:25;99703.72;;;2.52;60.77
46223;BME280;31943;51.410;7.564;2022-12-10T12:28:57;99709.91;;;2.57;60.84
46223;BME280;31943;51.410;7.564;2022-12-10T12:31:35;99707.47;;;2.62;60.83
46223;BME280;31943;51.410;7.564;2022-12-10T12:34:05;99699.75;;;2.62;60.78
46223;BME280;31943;51.410;7.564;2022-12-10T12:36:36;99705.63;;;2.57;60.57
46223;BME280;31943;51.410;7.564;2022-12-10T12:39:06;99709.25;;;2.63;60.86
46223;BME280;31943;51.410;7.564;2022-12-10T12:41:41;99705.03;;;2.65;60.65
46223;BME280;31943;51.410;7.564;2022-12-10T12:44:15;99714.59;;;2.69;60.81
46223;BME280;31943;51.410;7.564;2022-12-10T12:46:45;99713.94;;;2.74;60.79
46223;BME280;31943;51.410;7.564;2022-12-10T12:49:18;99707.25;;;2.81;60.68
46223;BME280;31943;51.410;7.564;2022-12-10T12:51:49;99703.22;;;2.89;60.46
46223;BME280;31943;51.410;7.564;2022-12-10T12:54:19;99706.84;;;2.94;60.36
46223;BME280;31943;51.410;7.564;2022-12-10T12:56:56;99705.06;;;2.93;60.39
46223;BME280;31943;51.410;7.564;2022-12-10T12:59:34;99703.81;;;2.81;59.94
46223;BME280;31943;51.410;7.564;2022-12-10T13:02:10;99703.44;;;2.70;60.13
46223;BME280;31943;51.410;7.564;2022-12-10T13:04:39;99697.28;;;2.65;60.72
46223;BME280;31943;51.410;7.564;2022-12-10T13:07:35;99702.38;;;2.63;60.77
46223;BME280;31943;51.410;7.564;2022-12-10T13:10:23;99693.81;;;2.64;60.96
46223;BME280;31943;51.410;7.564;2022-12-10T13:12:51;99699.75;;;2.62;61.09
46223;BME280;31943;51.410;7.564;2022-12-10T13:15:21;99706.44;;;2.56;60.95
46223;BME280;31943;51.410;7.564;2022-12-10T13:18:33;99701.16;;;2.52;60.60
46223;BME280;31943;51.410;7.564;2022-12-10T13:21:19;99709.00;;;2.55;60.65
46223;BME280;31943;51.410;7.564;2022-12-10T13:23:52;99703.00;;;2.56;60.69
46223;BME280;31943;51.410;7.564;2022-12-10T13:26:26;99700.56;;;2.61;61.35
46223;BME280;31943;51.410;7.564;2022-12-10T13:28:53;99702.53;;;2.68;61.32
46223;BME280;31943;51.410;7.564;2022-12-10T13:31:33;99705.31;;;2.74;61.17
46223;BME280;31943;51.410;7.564;2022-12-10T13:34:23;99712.94;;;2.71;61.18
46223;BME280;31943;51.410;7.564;2022-12-10T13:37:10;99709.53;;;2.72;61.13
46223;BME280;31943;51.410;7.564;2022-12-10T13:39:46;99706.94;;;2.72;60.95
46223;BME280;31943;51.410;7.564;2022-12-10T13:42:36;99711.50;;;2.79;60.92
46223;BME280;31943;51.410;7.564;2022-12-10T13:45:04;99709.97;;;2.86;61.19
46223;BME280;31943;51.410;7.564;2022-12-10T13:47:43;99715.13;;;2.86;60.54
46223;BME280;31943;51.410;7.564;2022-12-10T13:50:17;99703.81;;;2.81;60.78
46223;BME280;31943;51.410;7.564;2022-12-10T13:52:53;99712.31;;;2.78;60.88
46223;BME280;31943;51.410;7.564;2022-12-10T13:55:26;99713.16;;;2.77;60.81
46223;BME280;31943;51.410;7.564;2022-12-10T13:58:23;99720.94;;;2.79;60.74
46223;BME280;31943;51.410;7.564;2022-12-10T14:00:57;99714.84;;;2.76;60.83
46223;BME280;31943;51.410;7.564;2022-12-10T14:03:47;99719.88;;;2.73;60.78
46223;BME280;31943;51.410;7.564;2022-12-10T14:06:17;99717.19;;;2.70;60.95
46223;BME280;31943;51.410;7.564;2022-12-10T14:08:58;99720.69;;;2.72;60.76
46223;BME280;31943;51.410;7.564;2022-12-10T14:11:28;99721.22;;;2.62;60.82
46223;BME280;31943;51.410;7.564;2022-12-10T14:13:56;99725.13;;;2.51;60.93
46223;BME280;31943;51.410;7.564;2022-12-10T14:16:22;99723.81;;;2.36;60.96
46223;BME280;31943;51.410;7.564;2022-12-10T14:18:53;99728.69;;;2.29;61.10
46223;BME280;31943;51.410;7.564;2022-12-10T14:21:20;99723.53;;;2.29;61.27
46223;BME280;31943;51.410;7.564;2022-12-10T14:23:48;99726.09;;;2.29;61.25
46223;BME280;31943;51.410;7.564;2022-12-10T14:26:16;99728.75;;;2.30;61.27
46223;BME280;31943;51.410;7.564;2022-12-10T14:28:43;99738.06;;;2.27;61.48
46223;BME280;31943;51.410;7.564;2022-12-10T14:31:14;99730.28;;;2.25;61.26
46223;BME280;31943;51.410;7.564;2022-12-10T14:33:41;99731.75;;;2.18;61.57
46223;BME280;31943;51.410;7.564;2022-12-10T14:36:15;99731.66;;;2.15;61.60
46223;BME280;31943;51.410;7.564;2022-12-10T14:38:41;99740.34;;;2.19;61.62
46223;BME280;31943;51.410;7.564;2022-12-10T14:41:06;99738.78;;;2.23;61.64
46223;BME280;31943;51.410;7.564;2022-12-10T14:43:35;99736.31;;;2.26;61.61
46223;BME280;31943;51.410;7.564;2022-12-10T14:46:02;99746.63;;;2.26;61.52
46223;BME280;31943;51.410;7.564;2022-12-10T14:48:29;99741.34;;;2.23;61.20
46223;BME280;31943;51.410;7.564;2022-12-10T14:50:56;99743.13;;;2.25;61.36
46223;BME280;31943;51.410;7.564;2022-12-10T14:53:31;99743.31;;;2.30;61.23
46223;BME280;31943;51.410;7.564;2022-12-10T14:55:59;99743.31;;;2.30;61.25
46223;BME280;31943;51.410;7.564;2022-12-10T14:58:31;99741.47;;;2.26;61.58
46223;BME280;31943;51.410;7.564;2022-12-10T15:01:02;99748.25;;;2.24;61.68
46223;BME280;31943;51.410;7.564;2022-12-10T15:03:31;99746.50;;;2.23;61.52
46223;BME280;31943;51.410;7.564;2022-12-10T15:05:59;99750.84;;;2.24;61.61
46223;BME280;31943;51.410;7.564;2022-12-10T15:08:28;99751.75;;;2.26;61.74
46223;BME280;31943;51.410;7.564;2022-12-10T15:10:56;99758.78;;;2.30;61.53
46223;BME280;31943;51.410;7.564;2022-12-10T15:13:27;99757.06;;;2.30;61.59
46223;BME280;31943;51.410;7.564;2022-12-10T15:15:54;99755.28;;;2.29;61.66
46223;BME280;31943;51.410;7.564;2022-12-10T15:18:25;99752.84;;;2.32;61.77
46223;BME280;31943;51.410;7.564;2022-12-10T15:20:54;99762.38;;;2.35;61.85
46223;BME280;31943;51.410;7.564;2022-12-10T15:23:23;99754.75;;;2.38;62.18
46223;BME280;31943;51.410;7.564;2022-12-10T15:25:58;99754.81;;;2.40;62.45
46223;BME280;31943;51.410;7.564;2022-12-10T15:28:26;99756.41;;;2.36;62.17
46223;BME280;31943;51.410;7.564;2022-12-10T15:30:55;99758.13;;;2.37;62.31
46223;BME280;31943;51.410;7.564;2022-12-10T15:33:27;99761.75;;;2.42;62.37
46223;BME280;31943;51.410;7.564;2022-12-10T15:35:56;99766.19;;;2.46;62.12
46223;BME280;31943;51.410;7.564;2022-12-10T15:38:23;99762.84;;;2.49;61.84
46223;BME280;31943;51.410;7.564;2022-12-10T15:40:49;99770.63;;;2.50;61.90
46223;BME280;31943;51.410;7.564;2022-12-10T15:43:25;99769.97;;;2.56;61.94
46223;BME280;31943;51.410;7.564;2022-12-10T15:45:51;99761.44;;;2.57;61.91
46223;BME280;31943;51.410;7.564;2022-12-10T15:48:17;99759.88;;;2.62;62.12
46223;BME280;31943;51.410;7.564;2022-12-10T15:50:43;99758.28;;;2.66;62.38
46223;BME280;31943;51.410;7.564;2022-12-10T15:53:11;99757.41;;;2.65;62.24
46223;BME280;31943;51.410;7.564;2022-12-10T15:55:37;99751.47;;;2.68;62.42
46223;BME280;31943;51.410;7.564;2022-12-10T15:58:05;99753.25;;;2.69;62.73
46223;BME280;31943;51.410;7.564;2022-12-10T16:00:36;99759.25;;;2.69;62.39
46223;BME280;31943;51.410;7.564;2022-12-10T16:03:03;99754.09;;;2.69;62.60
46223;BME280;31943;51.410;7.564;2022-12-10T16:05:30;99763.56;;;2.70;62.48
46223;BME280;31943;51.410;7.564;2022-12-10T16:07:58;99778.22;;;2.71;62.61
46223;BME280;31943;51.410;7.564;2022-12-10T16:10:27;99779.09;;;2.72;62.58
46223;BME280;31943;51.410;7.564;2022-12-10T16:12:59;99775.50;;;2.67;62.29
46223;BME280;31943;51.410;7.564;2022-12-10T16:15:26;99780.41;;;2.61;61.91
46223;BME280;31943;51.410;7.564;2022-12-10T16:17:54;99777.63;;;2.54;61.91
46223;BME280;31943;51.410;7.564;2022-12-10T16:20:22;99778.41;;;2.52;61.86
46223;BME280;31943;51.410;7.564;2022-12-10T16:22:48;99778.41;;;2.52;61.70
46223;BME280;31943;51.410;7.564;2022-12-10T16:25:14;99776.81;;;2.55;61.86
46223;BME280;31943;51.410;7.564;2022-12-10T16:27:40;99770.94;;;2.60;61.76
46223;BME280;31943;51.410;7.564;2022-12-10T16:30:12;99776.22;;;2.63;61.92
46223;BME280;31943;51.410;7.564;2022-12-10T16:32:38;99770.28;;;2.65;62.14
46223;BME280;31943;51.410;7.564;2022-12-10T16:35:05;99776.44;;;2.69;62.21
46223;BME280;31943;51.410;7.564;2022-12-10T16:37:31;99772.19;;;2.71;62.32
46223;BME280;31943;51.410;7.564;2022-12-10T16:39:57;99770.56;;;2.73;62.46
46223;BME280;31943;51.410;7.564;2022-12-10T16:42:22;99770.63;;;2.74;62.43
46223;BME280;31943;51.410;7.564;2022-12-10T16:44:48;99778.38;;;2.76;62.60
46223;BME280;31943;51.410;7.564;2022-12-10T16:47:13;99769.81;;;2.77;62.77
46223;BME280;31943;51.410;7.564;2022-12-10T16:49:39;99774.19;;;2.80;62.64
46223;BME280;31943;51.410;7.564;2022-12-10T16:52:06;99770.81;;;2.81;62.67
46223;BME280;31943;51.410;7.564;2022-12-10T16:54:32;99775.13;;;2.82;62.71
46223;BME280;31943;51.410;7.564;2022-12-10T16:56:57;99773.41;;;2.82;62.81
46223;BME280;31943;51.410;7.564;2022-12-10T16:59:23;99773.47;;;2.84;62.71
46223;BME280;31943;51.410;7.564;2022-12-10T17:01:48;99773.53;;;2.85;62.85
46223;BME280;31943;51.410;7.564;2022-12-10T17:04:14;99779.50;;;2.84;62.71
46223;BME280;31943;51.410;7.564;2022-12-10T17:06:39;99776.09;;;2.85;62.88
46223;BME280;31943;51.410;7.564;2022-12-10T17:09:06;99787.34;;;2.87;62.81
46223;BME280;31943;51.410;7.564;2022-12-10T17:11:38;99784.81;;;2.89;62.85
46223;BME280;31943;51.410;7.564;2022-12-10T17:14:06;99790.03;;;2.90;62.79
46223;BME280;31943;51.410;7.564;2022-12-10T17:16:34;99779.72;;;2.90;62.81
46223;BME280;31943;51.410;7.564;2022-12-10T17:19:00;99784.03;;;2.91;63.00
46223;BME280;31943;51.410;7.564;2022-12-10T17:21:25;99786.56;;;2.90;62.84
46223;BME280;31943;51.410;7.564;2022-12-10T17:23:51;99776.22;;;2.88;62.78
46223;BME280;31943;51.410;7.564;2022-12-10T17:26:23;99789.97;;;2.89;62.57
46223;BME280;31943;51.410;7.564;2022-12-10T17:28:51;99783.84;;;2.85;62.64
46223;BME280;31943;51.410;7.564;2022-12-10T17:31:16;99778.81;;;2.88;62.62
46223;BME280;31943;51.410;7.564;2022-12-10T17:33:42;99785.69;;;2.89;62.87
46223;BME280;31943;51.410;7.564;2022-12-10T17:36:09;99780.53;;;2.89;62.99
46223;BME280;31943;51.410;7.564;2022-12-10T17:38:35;99782.31;;;2.90;62.83
46223;BME280;31943;51.410;7.564;2022-12-10T17:41:00;99780.59;;;2.91;62.90
46223;BME280;31943;51.410;7.564;2022-12-10T17:43:27;99781.53;;;2.93;62.78
46223;BME280;31943;51.410;7.564;2022-12-10T17:45:55;99777.22;;;2.93;62.80
46223;BME280;31943;51.410;7.564;2022-12-10T17:48:21;99780.72;;;2.95;62.69
46223;BME280;31943;51.410;7.564;2022-12-10T17:50:47;99778.16;;;2.95;62.83
46223;BME280;31943;51.410;7.564;2022-12-10T17:53:14;99787.72;;;2.98;62.86
46223;BME280;31943;51.410;7.564;2022-12-10T17:55:41;99783.44;;;2.99;62.85
46223;BME280;31943;51.410;7.564;2022-12-10T17:58:09;99789.38;;;2.97;62.71
46223;BME280;31943;51.410;7.564;2022-12-10T18:00:36;99785.94;;;2.97;62.58
46223;BME280;31943;51.410;7.564;2022-12-10T18:03:02;99798.06;;;3.00;62.63
46223;BME280;31943;51.410;7.564;2022-12-10T18:05:27;99799.75;;;2.99;62.64
46223;BME280;31943;51.410;7.564;2022-12-10T18:07:53;99803.19;;;3.00;62.71
46223;BME280;31943;51.410;7.564;2022-12-10T18:10:22;99796.13;;;2.94;62.91
46223;BME280;31943;51.410;7.564;2022-12-10T18:12:48;99792.69;;;2.93;63.03
46223;BME280;31943;51.410;7.564;2022-12-10T18:15:14;99802.13;;;2.93;62.87
46223;BME280;31943;51.410;7.564;2022-12-10T18:17:41;99803.78;;;2.91;63.00
46223;BME280;31943;51.410;7.564;2022-12-10T18:20:07;99805.13;;;2.80;63.08
46223;BME280;31943;51.410;7.564;2022-12-10T18:22:33;99799.50;;;2.66;63.20
46223;BME280;31943;51.410;7.564;2022-12-10T18:24:58;99801.72;;;2.55;63.57
46223;BME280;31943;51.410;7.564;2022-12-10T18:27:24;99797.31;;;2.52;63.84
46223;BME280;31943;51.410;7.564;2022-12-10T18:29:49;99803.38;;;2.54;63.89
46223;BME280;31943;51.410;7.564;2022-12-10T18:32:15;99811.31;;;2.59;63.93
46223;BME280;31943;51.410;7.564;2022-12-10T18:34:42;99813.16;;;2.63;64.05
46223;BME280;31943;51.410;7.564;2022-12-10T18:37:08;99811.50;;;2.65;63.79
46223;BME280;31943;51.410;7.564;2022-12-10T18:39:34;99815.66;;;2.62;64.06
46223;BME280;31943;51.410;7.564;2022-12-10T18:41:59;99809.66;;;2.61;64.06
46223;BME280;31943;51.410;7.564;2022-12-10T18:44:26;99811.31;;;2.59;64.00
46223;BME280;31943;51.410;7.564;2022-12-10T18:46:54;99820.56;;;2.54;64.23
46223;BME280;31943;51.410;7.564;2022-12-10T18:49:21;99809.25;;;2.50;64.16
46223;BME280;31943;51.410;7.564;2022-12-10T18:51:48;99818.97;;;2.57;64.12
46223;BME280;31943;51.410;7.564;2022-12-10T18:54:14;99822.59;;;2.63;64.15
46223;BME280;31943;51.410;7.564;2022-12-10T18:56:40;99825.97;;;2.62;63.97
46223;BME280;31943;51.410;7.564;2022-12-10T18:59:10;99829.47;;;2.64;64.21
46223;BME280;31943;51.410;7.564;2022-12-10T19:01:37;99835.50;;;2.64;64.19
46223;BME280;31943;51.410;7.564;2022-12-10T19:04:02;99830.41;;;2.66;64.14
46223;BME280;31943;51.410;7.564;2022-12-10T19:06:28;99826.31;;;2.71;64.11
46223;BME280;31943;51.410;7.564;2022-12-10T19:08:57;99829.88;;;2.74;64.04
46223;BME280;31943;51.410;7.564;2022-12-10T19:11:23;99824.66;;;2.73;64.12
46223;BME280;31943;51.410;7.564;2022-12-10T19:13:50;99825.66;;;2.76;63.82
46223;BME280;31943;51.410;7.564;2022-12-10T19:16:18;99829.03;;;2.75;63.91
46223;BME280;31943;51.410;7.564;2022-12-10T19:18:44;99823.88;;;2.75;64.16
46223;BME280;31943;51.410;7.564;2022-12-10T19:21:10;99824.81;;;2.77;63.89
46223;BME280;31943;51.410;7.564;2022-12-10T19:23:36;99828.22;;;2.76;63.89
46223;BME280;31943;51.410;7.564;2022-12-10T19:26:04;99827.97;;;2.69;63.99
46223;BME280;31943;51.410;7.564;2022-12-10T19:28:37;99818.31;;;2.63;63.87
46223;BME280;31943;51.410;7.564;2022-12-10T19:31:02;99824.13;;;2.57;63.96
46223;BME280;31943;51.410;7.564;2022-12-10T19:33:28;99828.16;;;2.51;64.16
46223;BME280;31943;51.410;7.564;2022-12-10T19:35:54;99831.34;;;2.44;64.08
46223;BME280;31943;51.410;7.564;2022-12-10T19:38:19;99828.84;;;2.45;64.24
46223;BME280;31943;51.410;7.564;2022-12-10T19:40:45;99832.16;;;2.43;64.25
46223;BME280;31943;51.410;7.564;2022-12-10T19:43:12;99821.44;;;2.30;64.26
46223;BME280;31943;51.410;7.564;2022-12-10T19:45:39;99816.13;;;2.26;64.24
46223;BME280;31943;51.410;7.564;2022-12-10T19:48:05;99810.97;;;2.26;64.50
46223;BME280;31943;51.410;7.564;2022-12-10T19:50:33;99809.44;;;2.31;64.51
46223;BME280;31943;51.410;7.564;2022-12-10T19:52:59;99807.91;;;2.36;64.50
46223;BME280;31943;51.410;7.564;2022-12-10T19:55:24;99806.03;;;2.32;64.48
46223;BME280;31943;51.410;7.564;2022-12-10T19:57:50;99806.31;;;2.40;64.41
46223;BME280;31943;51.410;7.564;2022-12-10T20:00:19;99807.53;;;2.49;64.39
46223;BME280;31943;51.410;7.564;2022-12-10T20:02:45;99801.75;;;2.56;64.35
46223;BME280;31943;51.410;7.564;2022-12-10T20:05:11;99804.28;;;2.55;64.24
46223;BME280;31943;51.410;7.564;2022-12-10T20:07:37;99801.66;;;2.53;64.17
46223;BME280;31943;51.410;7.564;2022-12-10T20:10:03;99796.44;;;2.52;64.18
46223;BME280;31943;51.410;7.564;2022-12-10T20:12:29;99795.63;;;2.53;64.15
46223;BME280;31943;51.410;7.564;2022-12-10T20:14:55;99794.75;;;2.52;64.09
46223;BME280;31943;51.410;7.564;2022-12-10T20:17:23;99792.16;;;2.52;64.21
46223;BME280;31943;51.410;7.564;2022-12-10T20:19:48;99789.78;;;2.58;64.33
46223;BME280;31943;51.410;7.564;2022-12-10T20:22:14;99788.22;;;2.62;63.98
46223;BME280;31943;51.410;7.564;2022-12-10T20:24:39;99800.38;;;2.66;64.16
46223;BME280;31943;51.410;7.564;2022-12-10T20:27:05;99790.84;;;2.64;63.91
46223;BME280;31943;51.410;7.564;2022-12-10T20:29:31;99798.50;;;2.62;63.76
46223;BME280;31943;51.410;7.564;2022-12-10T20:31:57;99792.38;;;2.58;64.04
46223;BME280;31943;51.410;7.564;2022-12-10T20:34:24;99798.34;;;2.57;64.03
46223;BME280;31943;51.410;7.564;2022-12-10T20:36:51;99789.59;;;2.52;64.11
46223;BME280;31943;51.410;7.564;2022-12-10T20:39:19;99795.66;;;2.54;64.12
46223;BME280;31943;51.410;7.564;2022-12-10T20:41:45;99800.41;;;2.42;64.28
46223;BME280;31943;51.410;7.564;2022-12-10T20:44:11;99799.25;;;2.34;64.27
46223;BME280;31943;51.410;7.564;2022-12-10T20:46:37;99805.13;;;2.30;64.35
46223;BME280;31943;51.410;7.564;2022-12-10T20:49:03;99805.91;;;2.29;64.67
46223;BME280;31943;51.410;7.564;2022-12-10T20:51:31;99803.06;;;2.21;64.66
46223;BME280;31943;51.410;7.564;2022-12-10T20:53:56;99804.66;;;2.17;64.76
46223;BME280;31943;51.410;7.564;2022-12-10T20:56:24;99801.09;;;2.14;65.11
46223;BME280;31943;51.410;7.564;2022-12-10T20:58:50;99802.84;;;2.15;65.10
46223;BME280;31943;51.410;7.564;2022-12-10T21:01:17;99803.78;;;2.17;65.10
46223;BME280;31943;51.410;7.564;2022-12-10T21:03:43;99800.50;;;2.21;65.13
46223;BME280;31943;51.410;7.564;2022-12-10T21:06:12;99802.31;;;2.24;65.10
46223;BME280;31943;51.410;7.564;2022-12-10T21:08:40;99798.03;;;2.24;65.09
46223;BME280;31943;51.410;7.564;2022-12-10T21:11:06;99803.06;;;2.21;65.17